Terminal Aerodrome Forecast
Issued by NWS Melbourne, FL

Home | Current Version | Previous Version | Text Only | Print | Product List | Glossary On
Versions: 1 2 3 4 5 6 7 8 9 10 11 12 13 14 15 16 17 18 19 20 21 22 23 24 25 26 27 28 29 30 31 32 33 34 35 36 37 38
000
FTUS42 KMLB 261500 AAB
TAFMCO
TAF AMD
KMCO 261523Z 2615/2712 32014G21KT P6SM BKN010 OVC025
      TEMPO 2615/2617 6SM -RA BR
     FM261800 31012G18KT P6SM SCT025 BKN050 OVC120
     FM262100 32010KT P6SM SKC=

USA.gov is the U.S. government's official web portal to all federal, state and local government web resources and services.